메인 페이지
METAR-TAF:

METAR-TAF

공항 :

Plainview, 텍사스, 미국

위도: 34-10-05N, 경도: 101-43-02W, 고도: 1028m

현재 날씨관측

예보는 21분 전, 11:55시(UTC)에 발표되었습니다.
무풍
온도 -13°C
습도 78%
기압 1035 hPa
시정: 16.1km
맑음

METAR: KPVW 121155Z AUTO 00000KT 10SM CLR M13/M16 A3057 RMK AO2 T11281160 11074 21130

시각: 06:16 (12:16 UTC)

예보

예보는 56분 전, 11:20시(UTC)에 발표되었습니다.
예보 대상 시간: 12일 12시부터 13일 12시까지 (UTC)
여러 방향의 바람 5kt
시정: 10km
고도 25000ft 상공 구름 조금
12일 1800시부터 (UTC)
남남서9kt
시정: 10km
맑음

TAF: KPVW 121120Z 1212/1312 VRB05KT P6SM FEW250 FM121800 21009KT P6SM SKC

4,000개 이상의 공항 관측 자료 및 예보 (METAR 및 TAF 보고).

지도상에서 검색 가능한 기상관측소가 노란 점과 빨간 점으로 표시되어 있습니다.

기상관측소 명을 보려면 표시 위로 마우스를 이동하세요.

날씨 관측과 예보를 보려면 클릭하세요.

지도 변경 : 확대하려면 엑스 표시가 있는 녹색 버튼, 축소하려면 빼기 표시가 있는 녹색 버튼, 다음 페이지의 지도를 보려면 녹색 화살표를 클릭하세요.


METAR-TAF: